createdAt,value
2022-09-28T00:00:02.894Z,0
2022-09-28T00:01:02.678Z,0
2022-09-28T00:02:03.421Z,0
2022-09-28T00:03:02.847Z,0
2022-09-28T00:04:02.861Z,0
2022-09-28T00:05:02.733Z,0
2022-09-28T00:06:03.002Z,0
2022-09-28T00:07:02.500Z,0
2022-09-28T00:08:03.027Z,0
2022-09-28T00:09:02.542Z,0
2022-09-28T00:10:02.955Z,0
2022-09-28T00:11:03.081Z,0
2022-09-28T00:12:03.106Z,0
2022-09-28T00:13:02.906Z,0
2022-09-28T00:14:03.308Z,0
2022-09-28T00:15:03.017Z,0
2022-09-28T00:16:03.386Z,0
2022-09-28T00:17:03.213Z,0
2022-09-28T00:18:02.704Z,0
2022-09-28T00:19:03.366Z,0
2022-09-28T00:20:03.007Z,0
2022-09-28T00:21:03.016Z,0
2022-09-28T00:22:03.032Z,0
2022-09-28T00:23:03.291Z,0
2022-09-28T00:24:03.055Z,0
2022-09-28T00:25:03.074Z,0
2022-09-28T00:26:03.110Z,0
2022-09-28T00:27:03.361Z,0
2022-09-28T00:28:03.385Z,0
2022-09-28T00:29:03.421Z,0
2022-09-28T00:30:03.429Z,0
2022-09-28T00:31:03.295Z,0
2022-09-28T00:32:03.582Z,0
2022-09-28T00:33:03.231Z,0
2022-09-28T00:34:03.484Z,0
2022-09-28T00:35:02.985Z,0
2022-09-28T00:36:03.012Z,0
2022-09-28T00:37:03.038Z,0
2022-09-28T00:38:03.299Z,0
2022-09-28T00:39:03.566Z,0
2022-09-28T00:40:03.078Z,0
2022-09-28T00:41:03.639Z,0
2022-09-28T00:42:03.415Z,0
2022-09-28T00:43:03.631Z,0
2022-09-28T00:44:03.198Z,0
2022-09-28T00:45:03.679Z,0
2022-09-28T00:46:03.904Z,0
2022-09-28T00:47:03.751Z,0
2022-09-28T00:48:03.470Z,0
2022-09-28T00:49:03.508Z,0
2022-09-28T00:50:03.248Z,0
2022-09-28T00:51:03.524Z,0
2022-09-28T00:52:03.041Z,0
2022-09-28T00:53:03.571Z,0
2022-09-28T00:54:03.336Z,0
2022-09-28T00:55:03.593Z,0
2022-09-28T00:56:03.609Z,0
2022-09-28T00:57:03.891Z,0
2022-09-28T00:58:03.926Z,0
2022-09-28T00:59:03.934Z,0
2022-09-28T01:00:03.942Z,0
2022-09-28T01:01:04.589Z,0
2022-09-28T01:02:04.161Z,0
2022-09-28T01:03:03.781Z,0
2022-09-28T01:04:04.011Z,0
2022-09-28T01:05:04.066Z,0
2022-09-28T01:06:04.067Z,0
2022-09-28T01:07:04.066Z,0
2022-09-28T01:08:03.819Z,0
2022-09-28T01:09:03.331Z,0
2022-09-28T01:10:03.858Z,0
2022-09-28T01:11:03.888Z,0
2022-09-28T01:12:04.145Z,0
2022-09-28T01:13:03.959Z,0
2022-09-28T01:14:03.966Z,0
2022-09-28T01:15:03.954Z,0
2022-09-28T01:16:04.243Z,0
2022-09-28T01:17:03.982Z,0
2022-09-28T01:18:04.112Z,0
2022-09-28T01:19:04.154Z,0
2022-09-28T01:20:04.021Z,0
2022-09-28T01:21:04.096Z,0
2022-09-28T01:22:04.090Z,0
2022-09-28T01:23:04.174Z,0
2022-09-28T01:24:04.105Z,0
2022-09-28T01:25:04.388Z,0
2022-09-28T01:26:04.130Z,0
2022-09-28T01:27:04.198Z,0
2022-09-28T01:28:04.421Z,0
2022-09-28T01:29:04.200Z,0
2022-09-28T01:30:04.241Z,0
2022-09-28T01:31:04.256Z,0
2022-09-28T01:32:04.811Z,0
2022-09-28T01:33:04.000Z,0
2022-09-28T01:34:04.042Z,0
2022-09-28T01:35:04.316Z,0
2022-09-28T01:36:04.292Z,0
2022-09-28T01:37:04.349Z,0
2022-09-28T01:38:04.358Z,0
2022-09-28T01:39:04.355Z,0
2022-09-28T01:40:04.635Z,0
2022-09-28T01:41:04.273Z,0
2022-09-28T01:42:03.896Z,0
2022-09-28T01:43:04.433Z,0
2022-09-28T01:44:04.188Z,0
2022-09-28T01:45:04.481Z,0
2022-09-28T01:46:04.879Z,0
2022-09-28T01:47:04.502Z,0
2022-09-28T01:48:04.266Z,0
2022-09-28T01:49:04.800Z,0
2022-09-28T01:50:04.835Z,0
2022-09-28T01:51:04.599Z,0
2022-09-28T01:52:04.599Z,0
2022-09-28T01:53:04.902Z,0
2022-09-28T01:54:04.929Z,0
2022-09-28T01:55:04.398Z,0
2022-09-28T01:56:04.930Z,0
2022-09-28T01:57:04.937Z,0
2022-09-28T01:58:04.689Z,0
2022-09-28T01:59:04.715Z,0
2022-09-28T02:00:04.477Z,0
2022-09-28T02:01:04.829Z,0
2022-09-28T02:02:05.251Z,0
2022-09-28T02:03:05.047Z,0
2022-09-28T02:04:04.808Z,0
2022-09-28T02:05:05.075Z,0
2022-09-28T02:06:04.871Z,0
2022-09-28T02:07:05.278Z,0
2022-09-28T02:08:04.732Z,0
2022-09-28T02:09:05.326Z,0
2022-09-28T02:10:04.892Z,0
2022-09-28T02:11:05.281Z,0
2022-09-28T02:12:04.720Z,0
2022-09-28T02:13:04.689Z,0
2022-09-28T02:14:04.986Z,0
2022-09-28T02:15:05.025Z,0
2022-09-28T02:16:05.472Z,0
2022-09-28T02:17:05.329Z,0
2022-09-28T02:18:05.331Z,0
2022-09-28T02:19:05.305Z,0
2022-09-28T02:20:05.114Z,0
2022-09-28T02:21:05.091Z,0
2022-09-28T02:22:05.130Z,0
2022-09-28T02:23:05.153Z,0
2022-09-28T02:24:05.176Z,0
2022-09-28T02:25:05.274Z,0
2022-09-28T02:26:05.444Z,0
2022-09-28T02:27:05.293Z,0
2022-09-28T02:28:04.976Z,0
2022-09-28T02:29:04.984Z,0
2022-09-28T02:30:05.496Z,0
2022-09-28T02:31:05.370Z,0
2022-09-28T02:32:05.027Z,0
2022-09-28T02:33:05.557Z,0
2022-09-28T02:34:05.082Z,0
2022-09-28T02:35:05.080Z,0
2022-09-28T02:36:05.365Z,0
2022-09-28T02:37:05.376Z,0
2022-09-28T02:38:05.417Z,0
2022-09-28T02:39:05.451Z,0
2022-09-28T02:40:05.672Z,0
2022-09-28T02:41:05.928Z,0
2022-09-28T02:42:05.461Z,0
2022-09-28T02:43:05.478Z,0
2022-09-28T02:44:05.492Z,0
2022-09-28T02:45:05.509Z,0
2022-09-28T02:46:05.688Z,0
2022-09-28T02:47:05.536Z,0
2022-09-28T02:48:05.562Z,0
2022-09-28T02:49:27.901Z,0
2022-09-28T02:50:05.336Z,0
2022-09-28T02:51:05.615Z,0
2022-09-28T02:52:05.629Z,0
2022-09-28T02:53:05.387Z,0
2022-09-28T02:54:05.946Z,0
2022-09-28T02:55:05.963Z,0
2022-09-28T02:56:05.449Z,0
2022-09-28T02:57:05.755Z,0
2022-09-28T02:58:05.735Z,0
2022-09-28T02:59:06.011Z,0
2022-09-28T03:00:06.013Z,0
2022-09-28T03:01:06.135Z,0
2022-09-28T03:02:06.146Z,0
2022-09-28T03:03:05.816Z,0
2022-09-28T03:04:05.326Z,0
2022-09-28T03:05:05.622Z,0
2022-09-28T03:06:05.869Z,0
2022-09-28T03:07:06.256Z,0
2022-09-28T03:08:05.664Z,0
2022-09-28T03:09:05.928Z,0
2022-09-28T03:10:06.215Z,0
2022-09-28T03:11:05.982Z,0
2022-09-28T03:12:05.981Z,0
2022-09-28T03:13:05.767Z,0
2022-09-28T03:14:06.266Z,0
2022-09-28T03:15:06.298Z,0
2022-09-28T03:16:06.555Z,0
2022-09-28T03:17:06.323Z,0
2022-09-28T03:18:06.090Z,0
2022-09-28T03:19:06.149Z,0
2022-09-28T03:20:06.367Z,0
2022-09-28T03:21:05.900Z,0
2022-09-28T03:22:06.143Z,0
2022-09-28T03:23:31.279Z,0
2022-09-28T03:24:06.196Z,0
2022-09-28T03:25:06.512Z,0
2022-09-28T03:26:06.523Z,0
2022-09-28T03:27:06.265Z,0
2022-09-28T03:28:06.047Z,0
2022-09-28T03:29:06.289Z,0
2022-09-28T03:30:06.023Z,0
2022-09-28T03:31:06.210Z,0
2022-09-28T03:32:06.413Z,0
2022-09-28T03:33:06.349Z,0
2022-09-28T03:34:06.358Z,0
2022-09-28T03:35:06.124Z,0
2022-09-28T03:36:06.675Z,0
2022-09-28T03:37:06.443Z,0
2022-09-28T03:38:06.474Z,0
2022-09-28T03:39:06.599Z,0
2022-09-28T03:40:06.510Z,0
2022-09-28T03:41:06.889Z,0
2022-09-28T03:42:06.543Z,0
2022-09-28T03:43:06.807Z,0
2022-09-28T03:44:06.533Z,0
2022-09-28T03:45:06.611Z,0
2022-09-28T03:46:07.352Z,0
2022-09-28T03:47:06.848Z,0
2022-09-28T03:48:06.358Z,0
2022-09-28T03:49:06.628Z,0
2022-09-28T03:50:06.913Z,0
2022-09-28T03:51:06.675Z,0
2022-09-28T03:52:06.423Z,0
2022-09-28T03:53:06.466Z,0
2022-09-28T03:54:06.728Z,0
2022-09-28T03:55:06.465Z,0
2022-09-28T03:56:06.487Z,0
2022-09-28T03:57:07.015Z,0
2022-09-28T03:58:07.068Z,0
2022-09-28T03:59:07.078Z,0
2022-09-28T04:00:06.874Z,0
2022-09-28T04:01:07.467Z,0
2022-09-28T04:02:06.919Z,0
2022-09-28T04:03:06.850Z,0
2022-09-28T04:04:06.888Z,0
2022-09-28T04:05:06.646Z,0
2022-09-28T04:06:06.922Z,0
2022-09-28T04:07:07.201Z,0
2022-09-28T04:08:06.944Z,0
2022-09-28T04:09:07.290Z,0
2022-09-28T04:10:07.262Z,0
2022-09-28T04:11:07.257Z,0
2022-09-28T04:12:11.153Z,0
2022-09-28T04:13:07.048Z,0
2022-09-28T04:14:07.342Z,0
2022-09-28T04:15:07.101Z,0
2022-09-28T04:16:07.211Z,0
2022-09-28T04:17:07.385Z,0
2022-09-28T04:18:07.127Z,0
2022-09-28T04:19:07.871Z,0
2022-09-28T04:20:07.166Z,0
2022-09-28T04:21:07.588Z,0
2022-09-28T04:22:07.454Z,0
2022-09-28T04:23:07.494Z,0
2022-09-28T04:24:07.485Z,0
2022-09-28T04:25:07.019Z,0
2022-09-28T04:26:07.312Z,0
2022-09-28T04:27:07.378Z,0
2022-09-28T04:28:07.309Z,0
2022-09-28T04:29:12.390Z,0
2022-09-28T04:30:07.695Z,0
2022-09-28T04:31:07.739Z,0
2022-09-28T04:32:07.906Z,0
2022-09-28T04:33:07.464Z,0
2022-09-28T04:34:07.150Z,0
2022-09-28T04:35:07.262Z,0
2022-09-28T04:36:07.696Z,0
2022-09-28T04:37:07.713Z,0
2022-09-28T04:38:07.462Z,0
2022-09-28T04:39:07.244Z,0
2022-09-28T04:40:07.497Z,0
2022-09-28T04:41:07.477Z,0
2022-09-28T04:42:07.477Z,0
2022-09-28T04:43:07.205Z,0
2022-09-28T04:44:07.326Z,0
2022-09-28T04:45:07.464Z,0
2022-09-28T04:46:08.236Z,0
2022-09-28T04:47:12.386Z,0
2022-09-28T04:48:07.435Z,0
2022-09-28T04:49:07.685Z,0
2022-09-28T04:50:07.663Z,0
2022-09-28T04:51:07.955Z,0
2022-09-28T04:52:07.969Z,0
2022-09-28T04:53:07.730Z,0
2022-09-28T04:54:08.006Z,0
2022-09-28T04:55:07.504Z,0
2022-09-28T04:56:07.785Z,0
2022-09-28T04:57:07.830Z,0
2022-09-28T04:58:07.817Z,0
2022-09-28T04:59:07.840Z,0
2022-09-28T05:00:07.673Z,0
2022-09-28T05:01:08.578Z,0
2022-09-28T05:02:08.148Z,0
2022-09-28T05:03:08.187Z,4
2022-09-28T05:04:07.660Z,4
2022-09-28T05:05:07.968Z,4
2022-09-28T05:06:08.220Z,4
2022-09-28T05:07:08.217Z,4
2022-09-28T05:08:08.236Z,4
2022-09-28T05:09:07.767Z,0
2022-09-28T05:10:08.034Z,0
2022-09-28T05:11:08.044Z,4
2022-09-28T05:12:08.049Z,4
2022-09-28T05:13:08.107Z,4
2022-09-28T05:14:07.842Z,4
2022-09-28T05:15:07.858Z,4
2022-09-28T05:16:12.679Z,8
2022-09-28T05:17:08.311Z,8
2022-09-28T05:18:08.177Z,12
2022-09-28T05:19:08.831Z,16
2022-09-28T05:20:08.198Z,16
2022-09-28T05:21:08.507Z,20
2022-09-28T05:22:08.485Z,16
2022-09-28T05:23:08.499Z,16
2022-09-28T05:24:08.259Z,20
2022-09-28T05:25:08.302Z,16
2022-09-28T05:26:08.301Z,16
2022-09-28T05:27:08.318Z,16
2022-09-28T05:28:08.185Z,24
2022-09-28T05:29:08.114Z,20
2022-09-28T05:30:08.367Z,24
2022-09-28T05:31:08.132Z,28
2022-09-28T05:32:09.082Z,28
2022-09-28T05:33:08.688Z,32
2022-09-28T05:34:08.456Z,40
2022-09-28T05:35:08.748Z,40
2022-09-28T05:36:09.063Z,36
2022-09-28T05:37:08.784Z,36
2022-09-28T05:38:08.251Z,44
2022-09-28T05:39:08.831Z,40
2022-09-28T05:40:08.550Z,40
2022-09-28T05:41:13.516Z,56
2022-09-28T05:42:08.329Z,60
2022-09-28T05:43:08.590Z,60
2022-09-28T05:44:08.630Z,60
2022-09-28T05:45:08.804Z,60
2022-09-28T05:46:08.829Z,56
2022-09-28T05:47:08.678Z,56
2022-09-28T05:48:08.700Z,68
2022-09-28T05:49:08.697Z,76
2022-09-28T05:50:08.730Z,80
2022-09-28T05:51:08.768Z,92
2022-09-28T05:52:08.489Z,72
2022-09-28T05:53:09.103Z,64
2022-09-28T05:54:12.696Z,80
2022-09-28T05:55:09.078Z,52
2022-09-28T05:56:09.092Z,60
2022-09-28T05:57:08.588Z,68
2022-09-28T05:58:09.125Z,72
2022-09-28T05:59:08.634Z,64
2022-09-28T06:00:08.917Z,72
2022-09-28T06:01:09.540Z,72
2022-09-28T06:02:09.191Z,76
2022-09-28T06:03:14.281Z,64
2022-09-28T06:04:09.224Z,76
2022-09-28T06:05:09.278Z,84
2022-09-28T06:06:09.262Z,112
2022-09-28T06:07:08.789Z,132
2022-09-28T06:08:08.786Z,100
2022-09-28T06:09:09.078Z,124
2022-09-28T06:10:09.115Z,160
2022-09-28T06:11:08.877Z,188
2022-09-28T06:12:09.377Z,156
2022-09-28T06:13:09.134Z,152
2022-09-28T06:14:09.141Z,168
2022-09-28T06:15:09.168Z,196
2022-09-28T06:16:09.468Z,172
2022-09-28T06:17:09.605Z,180
2022-09-28T06:18:09.473Z,200
2022-09-28T06:19:09.668Z,188
2022-09-28T06:20:09.499Z,232
2022-09-28T06:21:08.747Z,212
2022-09-28T06:22:09.293Z,260
2022-09-28T06:23:09.307Z,272
2022-09-28T06:24:09.054Z,232
2022-09-28T06:25:09.403Z,228
2022-09-28T06:26:09.371Z,284
2022-09-28T06:27:09.366Z,368
2022-09-28T06:28:09.649Z,372
2022-09-28T06:29:09.439Z,416
2022-09-28T06:30:09.665Z,428
2022-09-28T06:31:09.621Z,504
2022-09-28T06:32:09.507Z,712
2022-09-28T06:33:09.740Z,768
2022-09-28T06:34:09.488Z,712
2022-09-28T06:35:09.265Z,804
2022-09-28T06:36:09.527Z,908
2022-09-28T06:37:09.553Z,912
2022-09-28T06:38:09.802Z,828
2022-09-28T06:39:09.604Z,652
2022-09-28T06:40:09.850Z,664
2022-09-28T06:41:09.860Z,648
2022-09-28T06:42:09.885Z,624
2022-09-28T06:43:09.636Z,724
2022-09-28T06:44:10.022Z,604
2022-09-28T06:45:09.888Z,508
2022-09-28T06:46:10.387Z,456
2022-09-28T06:47:09.817Z,464
2022-09-28T06:48:09.878Z,464
2022-09-28T06:49:09.929Z,476
2022-09-28T06:50:10.132Z,640
2022-09-28T06:51:10.228Z,680
2022-09-28T06:52:09.871Z,684
2022-09-28T06:53:10.160Z,680
2022-09-28T06:54:09.886Z,780
2022-09-28T06:55:09.707Z,1024
2022-09-28T06:56:09.878Z,1176
2022-09-28T06:57:09.901Z,1056
2022-09-28T06:58:09.917Z,1064
2022-09-28T06:59:09.670Z,852
2022-09-28T07:00:10.196Z,1164
2022-09-28T07:01:10.078Z,1136
2022-09-28T07:02:10.463Z,1104
2022-09-28T07:03:10.251Z,992
2022-09-28T07:04:10.004Z,924
2022-09-28T07:05:10.046Z,1156
2022-09-28T07:06:09.795Z,880
2022-09-28T07:07:10.123Z,768
2022-09-28T07:08:09.811Z,684
2022-09-28T07:09:48.232Z,460
2022-09-28T07:10:10.376Z,528
2022-09-28T07:11:10.153Z,572
2022-09-28T07:12:10.153Z,508
2022-09-28T07:13:49.410Z,556
2022-09-28T07:14:15.872Z,556
2022-09-28T07:15:10.190Z,620
2022-09-28T07:16:10.438Z,712
2022-09-28T07:17:20.806Z,892
2022-09-28T07:18:11.378Z,956
2022-09-28T07:19:10.417Z,1020
2022-09-28T07:20:24.571Z,808
2022-09-28T07:21:22.208Z,624
2022-09-28T07:22:19.036Z,576
2022-09-28T07:23:24.382Z,768
2022-09-28T07:24:10.679Z,904
2022-09-28T07:25:10.133Z,1144
2022-09-28T07:26:13.922Z,1140
2022-09-28T07:27:10.663Z,1100
2022-09-28T07:28:10.693Z,1036
2022-09-28T07:29:10.730Z,1008
2022-09-28T07:30:10.478Z,1004
2022-09-28T07:31:11.359Z,928
2022-09-28T07:32:10.497Z,880
2022-09-28T07:33:10.782Z,900
2022-09-28T07:34:10.835Z,900
2022-09-28T07:35:10.552Z,764
2022-09-28T07:36:10.593Z,808
2022-09-28T07:37:10.630Z,832
2022-09-28T07:38:10.650Z,872
2022-09-28T07:39:10.627Z,824
2022-09-28T07:40:10.993Z,712
2022-09-28T07:41:10.896Z,816
2022-09-28T07:42:10.703Z,880
2022-09-28T07:43:10.446Z,892
2022-09-28T07:44:11.313Z,1028
2022-09-28T07:45:10.756Z,1224
2022-09-28T07:46:10.975Z,1240
2022-09-28T07:47:10.758Z,1164
2022-09-28T07:49:16.885Z,1504
2022-09-28T07:50:11.118Z,1596
2022-09-28T07:51:10.576Z,1560
2022-09-28T07:52:10.615Z,1412
2022-09-28T07:53:10.621Z,1456
2022-09-28T07:54:10.923Z,1228
2022-09-28T07:55:14.208Z,1280
2022-09-28T07:56:10.660Z,1236
2022-09-28T07:57:11.210Z,1220
2022-09-28T07:58:11.243Z,1372
2022-09-28T07:59:11.017Z,1460
2022-09-28T08:00:11.080Z,1464
2022-09-28T08:01:11.567Z,1728
2022-09-28T08:02:11.697Z,1812
2022-09-28T08:03:11.294Z,1876
2022-09-28T08:04:10.800Z,1656
2022-09-28T08:05:11.356Z,1308
2022-09-28T08:06:10.852Z,1348
2022-09-28T08:07:11.379Z,1280
2022-09-28T08:08:11.465Z,1156
2022-09-28T08:09:11.415Z,1260
2022-09-28T08:10:11.488Z,1276
2022-09-28T08:11:11.199Z,1448
2022-09-28T08:12:11.457Z,1428
2022-09-28T08:13:14.742Z,1304
2022-09-28T08:14:11.491Z,1348
2022-09-28T08:15:11.264Z,1380
2022-09-28T08:16:11.063Z,1464
2022-09-28T08:17:11.338Z,1780
2022-09-28T08:18:11.329Z,1832
2022-09-28T08:19:11.028Z,1648
2022-09-28T08:20:11.614Z,1672
2022-09-28T08:21:11.362Z,1820
2022-09-28T08:22:11.644Z,2044
2022-09-28T08:23:11.403Z,2084
2022-09-28T08:24:11.238Z,1976
2022-09-28T08:25:11.708Z,1904
2022-09-28T08:26:17.655Z,1928
2022-09-28T08:27:11.215Z,1752
2022-09-28T08:28:11.764Z,1460
2022-09-28T08:29:11.531Z,1228
2022-09-28T08:30:11.534Z,1040
2022-09-28T08:31:11.966Z,972
2022-09-28T08:32:11.314Z,1080
2022-09-28T08:33:11.867Z,1500
2022-09-28T08:34:11.598Z,1912
2022-09-28T08:35:11.630Z,1872
2022-09-28T08:36:11.381Z,2560
2022-09-28T08:37:11.141Z,2692
2022-09-28T08:38:11.684Z,2336
2022-09-28T08:39:11.942Z,1768
2022-09-28T08:40:11.850Z,1608
2022-09-28T08:41:11.824Z,1700
2022-09-28T08:42:11.778Z,1952
2022-09-28T08:43:11.501Z,2224
2022-09-28T08:44:11.791Z,1632
2022-09-28T08:45:11.574Z,1532
2022-09-28T08:46:12.176Z,1996
2022-09-28T08:47:12.091Z,1556
2022-09-28T08:48:12.110Z,1208
2022-09-28T08:49:41.979Z,1460
2022-09-28T08:50:11.977Z,1568
2022-09-28T08:51:12.159Z,1556
2022-09-28T08:52:11.663Z,1392
2022-09-28T08:53:11.956Z,1344
2022-09-28T08:54:17.212Z,1604
2022-09-28T08:55:12.248Z,1692
2022-09-28T08:56:11.762Z,1792
2022-09-28T08:57:12.268Z,1952
2022-09-28T08:58:12.315Z,1964
2022-09-28T08:59:11.808Z,1956
2022-09-28T09:00:18.804Z,2252
2022-09-28T09:01:12.666Z,2188
2022-09-28T09:02:12.241Z,1592
2022-09-28T09:03:12.144Z,1168
2022-09-28T09:04:12.152Z,1336
2022-09-28T09:05:12.196Z,1944
2022-09-28T09:06:14.270Z,1736
2022-09-28T09:07:12.196Z,1768
2022-09-28T09:08:12.212Z,2012
2022-09-28T09:09:12.222Z,2168
2022-09-28T09:10:12.896Z,2128
2022-09-28T09:11:12.528Z,2016
2022-09-28T09:12:12.584Z,1984
2022-09-28T09:13:12.300Z,1816
2022-09-28T09:14:12.903Z,1608
2022-09-28T09:15:12.599Z,1432
2022-09-28T09:16:12.427Z,1332
2022-09-28T09:17:12.281Z,1304
2022-09-28T09:18:14.566Z,1632
2022-09-28T09:19:12.763Z,1492
2022-09-28T09:20:12.829Z,1264
2022-09-28T09:21:12.224Z,1500
2022-09-28T09:22:12.733Z,1724
2022-09-28T09:23:12.494Z,1860
2022-09-28T09:24:12.255Z,2144
2022-09-28T09:25:12.283Z,2208
2022-09-28T09:26:14.340Z,2160
2022-09-28T09:27:12.938Z,2096
2022-09-28T09:28:12.906Z,2144
2022-09-28T09:29:12.948Z,2024
2022-09-28T09:30:13.467Z,1840
2022-09-28T09:31:12.942Z,1564
2022-09-28T09:32:13.021Z,1720
2022-09-28T09:33:12.662Z,2092
2022-09-28T09:34:13.026Z,2188
2022-09-28T09:35:12.958Z,1772
2022-09-28T09:36:12.459Z,1360
2022-09-28T09:37:12.902Z,1036
2022-09-28T09:38:12.998Z,764
2022-09-28T09:39:12.836Z,636
2022-09-28T09:40:12.877Z,588
2022-09-28T09:42:12.927Z,580
2022-09-28T09:43:13.101Z,592
2022-09-28T09:44:12.954Z,740
2022-09-28T09:45:12.932Z,832
2022-09-28T09:46:13.212Z,692
2022-09-28T09:47:12.667Z,724
2022-09-28T09:48:13.202Z,864
2022-09-28T09:49:13.205Z,1140
2022-09-28T09:50:16.104Z,1644
2022-09-28T09:51:13.246Z,2336
2022-09-28T09:52:12.997Z,2304
2022-09-28T09:53:13.067Z,2068
2022-09-28T09:54:13.094Z,1636
2022-09-28T09:55:13.069Z,1200
2022-09-28T09:56:12.863Z,868
2022-09-28T09:57:12.835Z,712
2022-09-28T09:58:13.138Z,884
2022-09-28T09:59:12.917Z,940
2022-09-28T10:00:13.038Z,808
2022-09-28T10:01:13.763Z,836
2022-09-28T10:02:18.882Z,1552
2022-09-28T10:03:12.946Z,2440
2022-09-28T10:04:13.242Z,2776
2022-09-28T10:05:12.997Z,2992
2022-09-28T10:06:12.998Z,2780
2022-09-28T10:07:13.527Z,2836
2022-09-28T10:08:13.547Z,3244
2022-09-28T10:09:13.674Z,3708
2022-09-28T10:10:13.333Z,3732
2022-09-28T10:11:13.095Z,3688
2022-09-28T10:12:13.618Z,3444
2022-09-28T10:13:13.399Z,3452
2022-09-28T10:14:13.409Z,3336
2022-09-28T10:15:12.894Z,3136
2022-09-28T10:16:13.501Z,3012
2022-09-28T10:17:13.712Z,3112
2022-09-28T10:18:13.238Z,3232
2022-09-28T10:19:13.577Z,3292
2022-09-28T10:20:13.873Z,3468
2022-09-28T10:21:13.517Z,3060
2022-09-28T10:22:13.544Z,2428
2022-09-28T10:23:13.819Z,1452
2022-09-28T10:24:13.851Z,1168
2022-09-28T10:25:13.614Z,1360
2022-09-28T10:26:13.618Z,1436
2022-09-28T10:27:13.371Z,1364
2022-09-28T10:28:13.390Z,1432
2022-09-28T10:29:13.960Z,1976
2022-09-28T10:30:13.492Z,2236
2022-09-28T10:31:13.716Z,2336
2022-09-28T10:32:13.493Z,2184
2022-09-28T10:33:13.487Z,2068
2022-09-28T10:34:13.941Z,1948
2022-09-28T10:35:13.784Z,1772
2022-09-28T10:36:13.560Z,1700
2022-09-28T10:37:14.095Z,1616
2022-09-28T10:38:14.104Z,1540
2022-09-28T10:39:14.107Z,1260
2022-09-28T10:40:13.936Z,1096
2022-09-28T10:41:14.049Z,1196
2022-09-28T10:42:14.176Z,1596
2022-09-28T10:43:13.655Z,1944
2022-09-28T10:44:14.260Z,2028
2022-09-28T10:45:14.213Z,2508
2022-09-28T10:46:14.298Z,2832
2022-09-28T10:47:13.475Z,2788
2022-09-28T10:48:14.043Z,2500
2022-09-28T10:49:14.065Z,2728
2022-09-28T10:50:14.071Z,2584
2022-09-28T10:51:14.155Z,3144
2022-09-28T10:52:14.115Z,3172
2022-09-28T10:53:14.111Z,2900
2022-09-28T10:54:13.977Z,2540
2022-09-28T10:55:14.147Z,2004
2022-09-28T10:56:14.185Z,1640
2022-09-28T10:57:19.967Z,1688
2022-09-28T10:58:14.570Z,1544
2022-09-28T10:59:14.470Z,1216
2022-09-28T11:00:14.494Z,940
2022-09-28T11:01:14.794Z,852
2022-09-28T11:02:14.534Z,740
2022-09-28T11:03:14.030Z,704
2022-09-28T11:04:14.483Z,616
2022-09-28T11:05:14.336Z,576
2022-09-28T11:06:14.363Z,688
2022-09-28T11:07:17.298Z,736
2022-09-28T11:08:14.667Z,664
2022-09-28T11:09:14.170Z,764
2022-09-28T11:10:14.421Z,908
2022-09-28T11:11:14.441Z,944
2022-09-28T11:12:14.493Z,992
2022-09-28T11:13:14.513Z,1060
2022-09-28T11:14:14.282Z,1148
2022-09-28T11:15:14.779Z,1224
2022-09-28T11:16:14.652Z,1272
2022-09-28T11:17:14.652Z,1260
2022-09-28T11:18:14.398Z,1224
2022-09-28T11:19:14.637Z,1172
2022-09-28T11:20:14.893Z,1084
2022-09-28T11:21:18.841Z,968
2022-09-28T11:22:18.543Z,868
2022-09-28T11:23:14.689Z,824
2022-09-28T11:24:20.846Z,832
2022-09-28T11:25:14.955Z,876
2022-09-28T11:26:21.294Z,952
2022-09-28T11:27:15.000Z,1016
2022-09-28T11:28:14.506Z,1076
2022-09-28T11:29:15.141Z,1116
2022-09-28T11:30:15.036Z,1132
2022-09-28T11:31:15.193Z,1120
2022-09-28T11:32:20.694Z,1084
2022-09-28T11:33:15.120Z,1028
2022-09-28T11:34:15.063Z,952
2022-09-28T11:35:15.128Z,964
2022-09-28T11:36:14.915Z,1020
2022-09-28T11:37:14.938Z,1112
2022-09-28T11:38:15.025Z,1284
2022-09-28T11:39:15.142Z,1348
2022-09-28T11:40:14.978Z,1300
2022-09-28T11:41:15.291Z,1284
2022-09-28T11:42:20.657Z,1404
2022-09-28T11:43:19.367Z,1768
2022-09-28T11:44:15.432Z,2156
2022-09-28T11:45:14.850Z,2488
2022-09-28T11:46:15.602Z,2788
2022-09-28T11:47:15.095Z,2796
2022-09-28T11:48:14.864Z,2676
2022-09-28T11:49:15.228Z,2536
2022-09-28T11:50:17.043Z,2356
2022-09-28T11:51:15.011Z,2588
2022-09-28T11:52:15.212Z,3348
2022-09-28T11:53:15.483Z,3580
2022-09-28T11:54:15.149Z,3112
2022-09-28T11:55:15.498Z,2508
2022-09-28T11:56:16.221Z,2224
2022-09-28T11:57:15.560Z,2020
2022-09-28T11:58:15.575Z,1736
2022-09-28T11:59:15.308Z,1692
2022-09-28T12:00:15.439Z,1960
2022-09-28T12:01:21.445Z,2376
2022-09-28T12:02:16.164Z,2360
2022-09-28T12:03:16.111Z,2120
2022-09-28T12:04:15.558Z,1332
2022-09-28T12:05:21.015Z,1060
2022-09-28T12:06:15.495Z,896
2022-09-28T12:07:15.304Z,688
2022-09-28T12:08:15.308Z,616
2022-09-28T12:09:15.573Z,652
2022-09-28T12:10:15.787Z,664
2022-09-28T12:11:15.533Z,648
2022-09-28T12:12:15.606Z,620
2022-09-28T12:13:15.563Z,696
2022-09-28T12:14:15.839Z,732
2022-09-28T12:15:15.587Z,788
2022-09-28T12:17:20.491Z,848
2022-09-28T12:17:31.031Z,840
2022-09-28T12:18:30.237Z,824
2022-09-28T12:19:30.704Z,868
2022-09-28T12:20:30.476Z,928
2022-09-28T12:21:30.495Z,940
2022-09-28T12:22:30.515Z,1120
2022-09-28T12:23:30.817Z,1256
2022-09-28T12:24:30.580Z,1604
2022-09-28T12:25:30.568Z,1804
2022-09-28T12:26:32.530Z,2152
2022-09-28T12:27:30.628Z,2264
2022-09-28T12:28:30.377Z,2496
2022-09-28T12:29:30.886Z,2568
2022-09-28T12:30:30.997Z,2652
2022-09-28T12:31:30.819Z,2880
2022-09-28T12:32:30.971Z,3080
2022-09-28T12:33:30.994Z,3268
2022-09-28T12:34:30.997Z,3232
2022-09-28T12:35:30.747Z,3520
2022-09-28T12:36:30.531Z,3432
2022-09-28T12:37:30.792Z,3284
2022-09-28T12:38:30.294Z,3144
2022-09-28T12:40:03.373Z,2676
2022-09-28T12:40:31.555Z,2600
2022-09-28T12:41:31.118Z,2452
2022-09-28T12:42:30.889Z,2312
2022-09-28T12:43:31.006Z,2028
2022-09-28T12:44:30.910Z,1764
2022-09-28T12:45:35.520Z,1624
2022-09-28T12:46:31.577Z,1568
2022-09-28T12:47:30.960Z,1496
2022-09-28T12:48:30.730Z,1440
2022-09-28T12:50:57.555Z,1556
2022-09-28T12:51:08.657Z,1564
2022-09-28T12:52:08.134Z,1500
2022-09-28T12:53:10.496Z,1432
2022-09-28T12:54:08.170Z,1400
2022-09-28T12:55:08.609Z,1384
2022-09-28T12:56:07.669Z,1332
2022-09-28T12:57:08.212Z,1304
2022-09-28T12:58:07.970Z,1356
2022-09-28T12:59:08.296Z,1280
2022-09-28T13:00:08.429Z,1124
2022-09-28T13:01:08.254Z,1192
2022-09-28T13:02:08.372Z,1120
2022-09-28T13:03:08.239Z,924
2022-09-28T13:04:11.481Z,740
2022-09-28T13:05:08.113Z,584
2022-09-28T13:06:08.117Z,472
2022-09-28T13:07:08.399Z,512
2022-09-28T13:08:08.142Z,512
2022-09-28T13:09:08.428Z,500
2022-09-28T13:10:08.447Z,488
2022-09-28T13:11:12.910Z,436
2022-09-28T13:12:08.276Z,400
2022-09-28T13:13:07.994Z,364
2022-09-28T13:14:08.017Z,400
2022-09-28T13:15:08.099Z,484
2022-09-28T13:16:08.858Z,484
2022-09-28T13:17:08.052Z,420
2022-09-28T13:18:08.343Z,464
2022-09-28T13:19:08.611Z,528
2022-09-28T13:20:08.122Z,656
2022-09-28T13:21:08.669Z,700
2022-09-28T13:22:08.669Z,792
2022-09-28T13:23:07.904Z,832
2022-09-28T13:24:37.070Z,920
2022-09-28T13:25:08.735Z,956
2022-09-28T13:26:08.255Z,1012
2022-09-28T13:27:08.336Z,1044
2022-09-28T13:28:08.516Z,1020
2022-09-28T13:29:08.534Z,996
2022-09-28T13:30:08.676Z,944
2022-09-28T13:31:08.875Z,864
2022-09-28T13:32:08.336Z,820
2022-09-28T13:33:08.358Z,872
2022-09-28T13:34:08.364Z,932
2022-09-28T13:35:08.397Z,1032
2022-09-28T13:36:08.404Z,1240
2022-09-28T13:37:08.972Z,1388
2022-09-28T13:38:08.443Z,1344
2022-09-28T13:39:08.982Z,1252
2022-09-28T13:40:09.035Z,1200
2022-09-28T13:41:08.573Z,1144
2022-09-28T13:42:09.874Z,1076
2022-09-28T13:43:08.858Z,968
2022-09-28T13:44:09.070Z,756
2022-09-28T13:45:08.567Z,612
2022-09-28T13:46:09.454Z,524
2022-09-28T13:47:08.895Z,460
2022-09-28T13:48:08.876Z,420
2022-09-28T13:49:08.945Z,388
2022-09-28T13:50:08.925Z,324
2022-09-28T13:51:09.202Z,304
2022-09-28T13:52:08.449Z,296
2022-09-28T13:53:09.011Z,236
2022-09-28T13:54:09.278Z,216
2022-09-28T13:55:08.805Z,204
2022-09-28T13:56:09.296Z,196
2022-09-28T13:57:09.051Z,192
2022-09-28T13:58:09.081Z,208
2022-09-28T13:59:09.176Z,220
2022-09-28T14:00:08.843Z,240
2022-09-28T14:01:09.361Z,280
2022-09-28T14:02:14.818Z,240